Hildegaard — C6QU3 — position and weather

sailwx.info

Track history (hours):
 
Tides and Currents Weather Stations Pressure Air Temp Water Temp Dewpoint Dewpoint Depression Visibility Wind Speed Wind Dir Waves Ship Positions

Hildegaard

Last reported at 2014-Jul-23 14:31 UTC. Time now 2014-Jul-23 15:33 UTC.
Position N 54°02' W 000°00'.

Length 248 m; draft 8.6 m.

Type: Ship. MMSI: 308574000.

Date/timePositionNaut miles runAvg speedWind from/ knotsBaromVisibWave heightAir tempDewpointWater temp
2014-Jul-23 14:31N 54°02' W 000°00'0 0.0
2014-Jul-23 13:31N 54°02' W 000°00'0 0.0
2014-Jul-23 12:31N 54°02' W 000°00'0 0.0
2014-Jul-23 11:28N 54°02' W 000°00'0 0.0
2014-Jul-23 10:31N 54°02' W 000°00'0 0.0
2014-Jul-23 09:31N 54°02' W 000°00'0 0.0
2014-Jul-23 08:28N 54°02' W 000°00'0 0.0
2014-Jul-23 05:31N 54°02' W 000°00'0 0.0
2014-Jul-23 04:31N 54°02' W 000°00'0 0.0
2014-Jul-23 03:31N 54°02' W 000°00'0 0.0
2014-Jul-23 02:31N 54°02' W 000°00'0 0.0
2014-Jul-23 01:31N 54°02' W 000°00'0 0.0
2014-Jul-23 00:31N 54°02' W 000°00'0 0.0
2014-Jul-22 23:31N 54°02' W 000°00'0 0.0
2014-Jul-22 22:31N 54°02' W 000°00'0 0.0
2014-Jul-22 21:31N 54°02' W 000°00'0 0.1
2014-Jul-22 20:28N 54°02' W 000°00'0 0.1
2014-Jul-22 19:31N 54°02' W 000°00'0 0.0
2014-Jul-22 18:31N 54°02' W 000°00'0 0.1
2014-Jul-22 17:31N 54°02' W 000°00'0 0.1
2014-Jul-22 16:28N 54°02' W 000°00'0 0.1
2014-Jul-22 15:31N 54°02' W 000°00'0 0.0
2014-Jul-22 14:31N 54°02' W 000°00'0 0.0
2014-Jul-22 13:31N 54°02' W 000°00'0 0.0
2014-Jul-22 12:31N 54°02' W 000°00'0 0.0
2014-Jul-22 11:31N 54°02' W 000°00'0 0.0
2014-Jul-22 10:31N 54°02' W 000°00'0 0.0
2014-Jul-22 09:31N 54°02' W 000°00'0 0.0
2014-Jul-22 08:31N 54°02' W 000°00'0 0.2
2014-Jul-22 07:31N 54°02' W 000°00'0 0.1
2014-Jul-22 06:28N 54°02' W 000°00'0 0.0
2014-Jul-22 05:25N 54°02' W 000°00'0 0.2
2014-Jul-22 04:25N 54°02' W 000°00'0 0.1
2014-Jul-22 03:31N 54°02' W 000°00'0 0.0
2014-Jul-22 02:31N 54°02' W 000°00'0 0.0
2014-Jul-22 01:31N 54°02' W 000°00'0 0.0
2014-Jul-22 00:31N 54°02' W 000°00'0 0.0
2014-Jul-21 23:31N 54°02' W 000°00'0 0.0
2014-Jul-21 22:31N 54°02' W 000°00'0 0.0
2014-Jul-21 21:31N 54°02' W 000°00'0 0.0
2014-Jul-21 20:28N 54°02' W 000°00'0 0.1
2014-Jul-21 20:13N 54°02' W 000°00'0 0.1
2014-Jul-21 18:31N 54°02' W 000°00'0 0.0
2014-Jul-21 17:31N 54°02' W 000°00'0 0.1
2014-Jul-21 16:31N 54°02' W 000°00'0 0.1
2014-Jul-21 15:31N 54°02' W 000°00'0 0.1
2014-Jul-21 14:31N 54°02' W 000°00'0 0.0
2014-Jul-21 13:31N 54°02' W 000°00'0 0.0
2014-Jul-21 12:31N 54°02' W 000°00'0 0.0
2014-Jul-21 11:31N 54°02' W 000°00'0 0.0
2014-Jul-21 10:31N 54°02' W 000°00'0 0.0
2014-Jul-21 09:31N 54°02' W 000°00'0 0.0
2014-Jul-21 08:31N 54°02' W 000°00'0 0.0
2014-Jul-21 07:31N 54°02' W 000°00'0 0.1
2014-Jul-21 06:19N 54°02' W 000°00'0 0.1
2014-Jul-21 05:22N 54°02' W 000°00'0 0.0
2014-Jul-21 04:28N 54°02' W 000°00'0 0.0
2014-Jul-21 03:28N 54°02' W 000°00'0 0.1
2014-Jul-21 02:25N 54°02' W 000°00'0 0.2
2014-Jul-21 01:31N 54°02' W 000°00'0 0.0
2014-Jul-21 00:28N 54°02' W 000°00'0 0.0
2014-Jul-20 23:31N 54°02' W 000°00'0 0.0
2014-Jul-20 22:31N 54°02' W 000°00'0 0.0
2014-Jul-20 21:31N 54°02' W 000°00'0 0.0
2014-Jul-20 20:28N 54°02' W 000°00'0 0.0
2014-Jul-20 19:31N 54°02' W 000°00'0 0.1
2014-Jul-20 18:31N 54°02' W 000°00'0 0.2
2014-Jul-20 17:31N 54°02' W 000°00'0 0.1
2014-Jul-20 16:25N 54°02' W 000°00'0 0.6
2014-Jul-20 15:33N 54°02' W 000°01'9 8.8
2014-Jul-20 14:33N 53°57' E 000°11'1111.3
2014-Jul-20 13:33N 53°47' E 000°19'10 9.2
2014-Jul-20 12:30N 53°37' E 000°21'8 8.6
2014-Jul-20 11:33N 53°33' E 000°09'2 1.6
2014-Jul-20 10:28N 53°32' E 000°07'0 0.0
2014-Jul-20 09:31N 53°32' E 000°07'0 0.0
2014-Jul-20 08:22N 53°32' E 000°07'0 0.0
2014-Jul-20 07:19N 53°32' E 000°07'0 0.0
2014-Jul-20 06:25N 53°32' E 000°07'0 0.2
2014-Jul-20 05:25N 53°32' E 000°07'0 0.1
2014-Jul-20 04:31N 53°32' E 000°07'0 0.0
2014-Jul-20 03:31N 53°32' E 000°07'0 0.0
2014-Jul-20 02:31N 53°32' E 000°07'0 0.1
2014-Jul-20 01:28N 53°32' E 000°07'0 0.3
2014-Jul-20 00:31N 53°32' E 000°07'0 0.1
2014-Jul-19 23:28N 53°32' E 000°07'0 0.0
2014-Jul-19 22:25N 53°32' E 000°07'0 0.0
2014-Jul-19 21:31N 53°32' E 000°07'0 0.0
2014-Jul-19 19:31N 53°32' E 000°07'0 0.0
2014-Jul-19 18:19N 53°32' E 000°07'0 0.2
2014-Jul-19 17:19N 53°32' E 000°07'0 0.1
2014-Jul-19 16:31N 53°32' E 000°07'0 0.1
2014-Jul-19 15:28N 53°32' E 000°07'0 0.0
2014-Jul-19 14:31N 53°32' E 000°07'0 0.0
2014-Jul-19 13:25N 53°32' E 000°07'0 0.1
2014-Jul-19 12:31N 53°32' E 000°07'0 0.0
2014-Jul-19 11:28N 53°32' E 000°07'0 0.5
2014-Jul-19 10:33N 53°32' E 000°08'6 5.6
2014-Jul-19 09:33N 53°35' E 000°17'8 8.0
2014-Jul-19 08:33N 53°41' E 000°24'0 0.5
2014-Jul-19 07:33N 53°41' E 000°24'4 3.7
2014-Jul-19 06:34N 53°44' E 000°21'0 0.2
2014-Jul-19 05:34N 53°44' E 000°21'0 0.1
2014-Jul-19 04:33N 53°44' E 000°21'0 0.0
2014-Jul-19 03:24N 53°44' E 000°21'0 0.0
2014-Jul-19 02:24N 53°44' E 000°21'0 0.0
2014-Jul-19 01:12N 53°44' E 000°21'0 0.1
2014-Jul-19 00:27N 53°44' E 000°21'0 0.2
2014-Jul-18 23:27N 53°44' E 000°21'0 0.1
2014-Jul-18 22:24N 53°44' E 000°21'0 0.0
2014-Jul-18 21:30N 53°44' E 000°21'0 0.0
2014-Jul-18 20:27N 53°44' E 000°21'0 0.1
2014-Jul-18 19:06N 53°44' E 000°21'0 0.1
2014-Jul-18 18:30N 53°44' E 000°21'0 0.1
2014-Jul-18 16:34N 53°44' E 000°21'0 0.1
2014-Jul-18 15:33N 53°44' E 000°21'0 0.0
2014-Jul-18 14:33N 53°44' E 000°21'0 0.0
2014-Jul-18 13:33N 53°44' E 000°21'0 0.1
2014-Jul-18 11:06N 53°44' E 000°21'0 0.1
2014-Jul-18 09:24N 53°44' E 000°21'0 0.0
2014-Jul-18 08:27N 53°44' E 000°21'0 0.0
2014-Jul-18 07:30N 53°44' E 000°21'0 0.0
2014-Jul-18 06:30N 53°44' E 000°21'0 0.1
2014-Jul-18 05:33N 53°44' E 000°21'0 0.1
2014-Jul-18 04:03N 53°44' E 000°21'0 0.1
2014-Jul-18 03:33N 53°44' E 000°21'0 0.0
2014-Jul-18 02:33N 53°44' E 000°21'0 0.0
2014-Jul-18 01:30N 53°44' E 000°21'0 0.0
2014-Jul-18 00:33N 53°44' E 000°21'0 0.4
2014-Jul-17 23:33N 53°44' E 000°21'10 9.8
2014-Jul-17 22:32N 53°54' E 000°16'1111.6
2014-Jul-17 21:33N 54°04' E 000°09'1312.5
2014-Jul-17 20:33N 54°15' W 000°03'1212.5
2014-Jul-17 19:33N 54°25' W 000°16'1212.1
2014-Jul-17 18:33N 54°34' W 000°29'1211.2
2014-Jul-17 17:31N 54°39' W 000°47'1010.4
2014-Jul-17 16:33N 54°42' W 001°04'6 5.7
2014-Jul-17 15:33N 54°38' W 001°10'0 0.0
2014-Jul-17 14:20N 54°38' W 001°10'0 0.0
2014-Jul-17 13:23N 54°38' W 001°10'0 0.0
2014-Jul-17 11:14N 54°38' W 001°10'0 0.0
2014-Jul-17 09:29N 54°38' W 001°10'0 0.0
2014-Jul-17 08:29N 54°38' W 001°10'0 0.0
2014-Jul-17 06:32N 54°38' W 001°10'0 0.0
2014-Jul-17 05:20N 54°38' W 001°10'1 0.1
2014-Jul-16 18:28N 54°38' W 001°09'6 6.2
2014-Jul-16 17:33N 54°43' W 001°04'2 2.3
2014-Jul-16 16:32N 54°46' W 001°04'0 0.5
2014-Jul-16 15:33N 54°45' W 001°04'1 0.7
2014-Jul-16 14:34N 54°45' W 001°03'3 3.2
2014-Jul-16 13:33N 54°43' W 000°58'5 4.5
2014-Jul-16 12:33N 54°40' W 000°52'5 4.7
2014-Jul-16 11:28N 54°38' W 000°44'6 6.1
2014-Jul-16 10:25N 54°36' W 000°34'5 5.7
2014-Jul-16 09:33N 54°33' W 000°27'5 5.0
2014-Jul-16 08:34N 54°29' W 000°22'4 4.2
2014-Jul-16 07:33N 54°26' W 000°17'4 3.9
2014-Jul-16 06:33N 54°22' W 000°14'4 3.6
2014-Jul-16 05:33N 54°20' W 000°10'4 4.1
2014-Jul-16 04:33N 54°16' W 000°05'4 4.4
2014-Jul-16 03:33N 54°13' W 000°01'6 5.7
2014-Jul-16 02:33N 54°08' E 000°05'7 6.7
2014-Jul-16 01:33N 54°02' E 000°10'7 7.3
2014-Jul-16 00:33N 53°55' E 000°14'7 7.4
2014-Jul-15 23:33N 53°49' E 000°19'8 7.6
2014-Jul-15 22:33N 53°41' E 000°22'9 9.2
2014-Jul-15 21:33N 53°33' E 000°15'5 4.9
2014-Jul-15 20:33N 53°32' E 000°07'0 0.1
2014-Jul-15 19:29N 53°32' E 000°07'0 0.0
2014-Jul-15 18:17N 53°32' E 000°07'0 0.0
2014-Jul-15 17:29N 53°32' E 000°07'0 0.0
2014-Jul-15 16:32N 53°32' E 000°07'0 0.1
2014-Jul-15 15:23N 53°32' E 000°07'0 0.3
2014-Jul-15 14:29N 53°32' E 000°07'0 0.1
2014-Jul-15 13:32N 53°32' E 000°07'0 0.0
2014-Jul-15 12:32N 53°32' E 000°07'0 0.0
2014-Jul-15 11:32N 53°32' E 000°07'0 0.0
2014-Jul-15 10:32N 53°32' E 000°07'0 0.0
2014-Jul-15 09:32N 53°32' E 000°07'0 0.3
2014-Jul-15 08:29N 53°32' E 000°07'0 0.1
2014-Jul-15 07:29N 53°32' E 000°07'0 0.0
2014-Jul-15 06:29N 53°32' E 000°07'0 0.0
2014-Jul-15 05:32N 53°32' E 000°07'0 0.0
2014-Jul-15 04:32N 53°32' E 000°07'0 0.0
2014-Jul-15 03:32N 53°32' E 000°07'0 0.1
2014-Jul-15 02:32N 53°32' E 000°07'0 0.3
2014-Jul-15 01:32N 53°32' E 000°07'0 0.0
2014-Jul-15 00:29N 53°32' E 000°07'0 0.0
2014-Jul-14 23:32N 53°32' E 000°07'0 0.0
2014-Jul-14 22:32N 53°32' E 000°07'0 0.0
2014-Jul-14 21:29N 53°32' E 000°07'0 0.1
2014-Jul-14 20:26N 53°32' E 000°07'0 0.1
2014-Jul-14 19:33N 53°32' E 000°07'5 4.7
2014-Jul-14 18:34N 53°33' E 000°15'7 7.3
2014-Jul-14 17:33N 53°39' E 000°23'2 2.2
2014-Jul-14 16:33N 53°39' E 000°27'0 0.0
2014-Jul-14 15:33N 53°39' E 000°27'6 6.0
2014-Jul-14 14:34N 53°44' E 000°24'0 0.1
2014-Jul-14 12:33N 53°45' E 000°23'0 0.0
2014-Jul-14 11:24N 53°45' E 000°23'0 0.0
2014-Jul-14 10:24N 53°45' E 000°24'0 0.0
2014-Jul-14 09:24N 53°45' E 000°24'0 0.2
2014-Jul-14 08:27N 53°45' E 000°24'0 0.2
2014-Jul-14 07:09N 53°44' E 000°24'0 0.0
2014-Jul-14 06:30N 53°44' E 000°24'0 0.0
2014-Jul-14 05:30N 53°44' E 000°24'0 0.0
2014-Jul-14 04:30N 53°44' E 000°24'0 0.0
2014-Jul-14 03:33N 53°44' E 000°24'0 0.0
2014-Jul-14 02:15N 53°44' E 000°24'0 0.3
2014-Jul-14 01:30N 53°45' E 000°24'0 0.1
2014-Jul-14 00:18N 53°45' E 000°23'0 0.0
2014-Jul-13 23:18N 53°45' E 000°23'0 0.0
2014-Jul-13 22:21N 53°45' E 000°24'0 0.0
2014-Jul-13 21:33N 53°45' E 000°24'0 0.1
2014-Jul-13 20:24N 53°45' E 000°24'0 0.2
2014-Jul-13 19:30N 53°44' E 000°24'0 0.0
2014-Jul-13 18:33N 53°44' E 000°24'0 0.0
2014-Jul-13 17:24N 53°44' E 000°24'0 0.0
2014-Jul-13 16:27N 53°44' E 000°24'0 0.0
2014-Jul-13 15:27N 53°44' E 000°24'  
Track history (hours):
 
Tides and Currents Weather Stations Pressure Air Temp Water Temp Dewpoint Dewpoint Depression Visibility Wind Speed Wind Dir Waves Ship Positions

Hildegaard

Last reported at 2014-Jul-23 14:31 UTC. Time now 2014-Jul-23 15:33 UTC.
Position N 54°02' W 000°00'.

Length 248 m; draft 8.6 m.

Type: Ship. MMSI: 308574000.

Date/timePositionNaut miles runAvg speedWind from/ knotsBaromVisibWave heightAir tempDewpointWater temp
2014-Jul-23 14:31N 54°02' W 000°00'0 0.0
2014-Jul-23 13:31N 54°02' W 000°00'0 0.0
2014-Jul-23 12:31N 54°02' W 000°00'0 0.0
2014-Jul-23 11:28N 54°02' W 000°00'0 0.0
2014-Jul-23 10:31N 54°02' W 000°00'0 0.0
2014-Jul-23 09:31N 54°02' W 000°00'0 0.0
2014-Jul-23 08:28N 54°02' W 000°00'0 0.0
2014-Jul-23 05:31N 54°02' W 000°00'0 0.0
2014-Jul-23 04:31N 54°02' W 000°00'0 0.0
2014-Jul-23 03:31N 54°02' W 000°00'0 0.0
2014-Jul-23 02:31N 54°02' W 000°00'0 0.0
2014-Jul-23 01:31N 54°02' W 000°00'0 0.0
2014-Jul-23 00:31N 54°02' W 000°00'0 0.0
2014-Jul-22 23:31N 54°02' W 000°00'0 0.0
2014-Jul-22 22:31N 54°02' W 000°00'0 0.0
2014-Jul-22 21:31N 54°02' W 000°00'0 0.1
2014-Jul-22 20:28N 54°02' W 000°00'0 0.1
2014-Jul-22 19:31N 54°02' W 000°00'0 0.0
2014-Jul-22 18:31N 54°02' W 000°00'0 0.1
2014-Jul-22 17:31N 54°02' W 000°00'0 0.1
2014-Jul-22 16:28N 54°02' W 000°00'0 0.1
2014-Jul-22 15:31N 54°02' W 000°00'0 0.0
2014-Jul-22 14:31N 54°02' W 000°00'0 0.0
2014-Jul-22 13:31N 54°02' W 000°00'0 0.0
2014-Jul-22 12:31N 54°02' W 000°00'0 0.0
2014-Jul-22 11:31N 54°02' W 000°00'0 0.0
2014-Jul-22 10:31N 54°02' W 000°00'0 0.0
2014-Jul-22 09:31N 54°02' W 000°00'0 0.0
2014-Jul-22 08:31N 54°02' W 000°00'0 0.2
2014-Jul-22 07:31N 54°02' W 000°00'0 0.1
2014-Jul-22 06:28N 54°02' W 000°00'0 0.0
2014-Jul-22 05:25N 54°02' W 000°00'0 0.2
2014-Jul-22 04:25N 54°02' W 000°00'0 0.1
2014-Jul-22 03:31N 54°02' W 000°00'0 0.0
2014-Jul-22 02:31N 54°02' W 000°00'0 0.0
2014-Jul-22 01:31N 54°02' W 000°00'0 0.0
2014-Jul-22 00:31N 54°02' W 000°00'0 0.0
2014-Jul-21 23:31N 54°02' W 000°00'0 0.0
2014-Jul-21 22:31N 54°02' W 000°00'0 0.0
2014-Jul-21 21:31N 54°02' W 000°00'0 0.0
2014-Jul-21 20:28N 54°02' W 000°00'0 0.1
2014-Jul-21 20:13N 54°02' W 000°00'0 0.1
2014-Jul-21 18:31N 54°02' W 000°00'0 0.0
2014-Jul-21 17:31N 54°02' W 000°00'0 0.1
2014-Jul-21 16:31N 54°02' W 000°00'0 0.1
2014-Jul-21 15:31N 54°02' W 000°00'0 0.1
2014-Jul-21 14:31N 54°02' W 000°00'0 0.0
2014-Jul-21 13:31N 54°02' W 000°00'0 0.0
2014-Jul-21 12:31N 54°02' W 000°00'0 0.0
2014-Jul-21 11:31N 54°02' W 000°00'0 0.0
2014-Jul-21 10:31N 54°02' W 000°00'0 0.0
2014-Jul-21 09:31N 54°02' W 000°00'0 0.0
2014-Jul-21 08:31N 54°02' W 000°00'0 0.0
2014-Jul-21 07:31N 54°02' W 000°00'0 0.1
2014-Jul-21 06:19N 54°02' W 000°00'0 0.1
2014-Jul-21 05:22N 54°02' W 000°00'0 0.0
2014-Jul-21 04:28N 54°02' W 000°00'0 0.0
2014-Jul-21 03:28N 54°02' W 000°00'0 0.1
2014-Jul-21 02:25N 54°02' W 000°00'0 0.2
2014-Jul-21 01:31N 54°02' W 000°00'0 0.0
2014-Jul-21 00:28N 54°02' W 000°00'0 0.0
2014-Jul-20 23:31N 54°02' W 000°00'0 0.0
2014-Jul-20 22:31N 54°02' W 000°00'0 0.0
2014-Jul-20 21:31N 54°02' W 000°00'0 0.0
2014-Jul-20 20:28N 54°02' W 000°00'0 0.0
2014-Jul-20 19:31N 54°02' W 000°00'0 0.1
2014-Jul-20 18:31N 54°02' W 000°00'0 0.2
2014-Jul-20 17:31N 54°02' W 000°00'0 0.1
2014-Jul-20 16:25N 54°02' W 000°00'0 0.6
2014-Jul-20 15:33N 54°02' W 000°01'9 8.8
2014-Jul-20 14:33N 53°57' E 000°11'1111.3
2014-Jul-20 13:33N 53°47' E 000°19'10 9.2
2014-Jul-20 12:30N 53°37' E 000°21'8 8.6
2014-Jul-20 11:33N 53°33' E 000°09'2 1.6
2014-Jul-20 10:28N 53°32' E 000°07'0 0.0
2014-Jul-20 09:31N 53°32' E 000°07'0 0.0
2014-Jul-20 08:22N 53°32' E 000°07'0 0.0
2014-Jul-20 07:19N 53°32' E 000°07'0 0.0
2014-Jul-20 06:25N 53°32' E 000°07'0 0.2
2014-Jul-20 05:25N 53°32' E 000°07'0 0.1
2014-Jul-20 04:31N 53°32' E 000°07'0 0.0
2014-Jul-20 03:31N 53°32' E 000°07'0 0.0
2014-Jul-20 02:31N 53°32' E 000°07'0 0.1
2014-Jul-20 01:28N 53°32' E 000°07'0 0.3
2014-Jul-20 00:31N 53°32' E 000°07'0 0.1
2014-Jul-19 23:28N 53°32' E 000°07'0 0.0
2014-Jul-19 22:25N 53°32' E 000°07'0 0.0
2014-Jul-19 21:31N 53°32' E 000°07'0 0.0
2014-Jul-19 19:31N 53°32' E 000°07'0 0.0
2014-Jul-19 18:19N 53°32' E 000°07'0 0.2
2014-Jul-19 17:19N 53°32' E 000°07'0 0.1
2014-Jul-19 16:31N 53°32' E 000°07'0 0.1
2014-Jul-19 15:28N 53°32' E 000°07'0 0.0
2014-Jul-19 14:31N 53°32' E 000°07'0 0.0
2014-Jul-19 13:25N 53°32' E 000°07'0 0.1
2014-Jul-19 12:31N 53°32' E 000°07'0 0.0
2014-Jul-19 11:28N 53°32' E 000°07'0 0.5
2014-Jul-19 10:33N 53°32' E 000°08'6 5.6
2014-Jul-19 09:33N 53°35' E 000°17'8 8.0
2014-Jul-19 08:33N 53°41' E 000°24'0 0.5
2014-Jul-19 07:33N 53°41' E 000°24'4 3.7
2014-Jul-19 06:34N 53°44' E 000°21'0 0.2
2014-Jul-19 05:34N 53°44' E 000°21'0 0.1
2014-Jul-19 04:33N 53°44' E 000°21'0 0.0
2014-Jul-19 03:24N 53°44' E 000°21'0 0.0
2014-Jul-19 02:24N 53°44' E 000°21'0 0.0
2014-Jul-19 01:12N 53°44' E 000°21'0 0.1
2014-Jul-19 00:27N 53°44' E 000°21'0 0.2
2014-Jul-18 23:27N 53°44' E 000°21'0 0.1
2014-Jul-18 22:24N 53°44' E 000°21'0 0.0
2014-Jul-18 21:30N 53°44' E 000°21'0 0.0
2014-Jul-18 20:27N 53°44' E 000°21'0 0.1
2014-Jul-18 19:06N 53°44' E 000°21'0 0.1
2014-Jul-18 18:30N 53°44' E 000°21'0 0.1
2014-Jul-18 16:34N 53°44' E 000°21'0 0.1
2014-Jul-18 15:33N 53°44' E 000°21'0 0.0
2014-Jul-18 14:33N 53°44' E 000°21'0 0.0
2014-Jul-18 13:33N 53°44' E 000°21'0 0.1
2014-Jul-18 11:06N 53°44' E 000°21'0 0.1
2014-Jul-18 09:24N 53°44' E 000°21'0 0.0
2014-Jul-18 08:27N 53°44' E 000°21'0 0.0
2014-Jul-18 07:30N 53°44' E 000°21'0 0.0
2014-Jul-18 06:30N 53°44' E 000°21'0 0.1
2014-Jul-18 05:33N 53°44' E 000°21'0 0.1
2014-Jul-18 04:03N 53°44' E 000°21'0 0.1
2014-Jul-18 03:33N 53°44' E 000°21'0 0.0
2014-Jul-18 02:33N 53°44' E 000°21'0 0.0
2014-Jul-18 01:30N 53°44' E 000°21'0 0.0
2014-Jul-18 00:33N 53°44' E 000°21'0 0.4
2014-Jul-17 23:33N 53°44' E 000°21'10 9.8
2014-Jul-17 22:32N 53°54' E 000°16'1111.6
2014-Jul-17 21:33N 54°04' E 000°09'1312.5
2014-Jul-17 20:33N 54°15' W 000°03'1212.5
2014-Jul-17 19:33N 54°25' W 000°16'1212.1
2014-Jul-17 18:33N 54°34' W 000°29'1211.2
2014-Jul-17 17:31N 54°39' W 000°47'1010.4
2014-Jul-17 16:33N 54°42' W 001°04'6 5.7
2014-Jul-17 15:33N 54°38' W 001°10'0 0.0
2014-Jul-17 14:20N 54°38' W 001°10'0 0.0
2014-Jul-17 13:23N 54°38' W 001°10'0 0.0
2014-Jul-17 11:14N 54°38' W 001°10'0 0.0
2014-Jul-17 09:29N 54°38' W 001°10'0 0.0
2014-Jul-17 08:29N 54°38' W 001°10'0 0.0
2014-Jul-17 06:32N 54°38' W 001°10'0 0.0
2014-Jul-17 05:20N 54°38' W 001°10'1 0.1
2014-Jul-16 18:28N 54°38' W 001°09'6 6.2
2014-Jul-16 17:33N 54°43' W 001°04'2 2.3
2014-Jul-16 16:32N 54°46' W 001°04'0 0.5
2014-Jul-16 15:33N 54°45' W 001°04'1 0.7
2014-Jul-16 14:34N 54°45' W 001°03'3 3.2
2014-Jul-16 13:33N 54°43' W 000°58'5 4.5
2014-Jul-16 12:33N 54°40' W 000°52'5 4.7
2014-Jul-16 11:28N 54°38' W 000°44'6 6.1
2014-Jul-16 10:25N 54°36' W 000°34'5 5.7
2014-Jul-16 09:33N 54°33' W 000°27'5 5.0
2014-Jul-16 08:34N 54°29' W 000°22'4 4.2
2014-Jul-16 07:33N 54°26' W 000°17'4 3.9
2014-Jul-16 06:33N 54°22' W 000°14'4 3.6
2014-Jul-16 05:33N 54°20' W 000°10'4 4.1
2014-Jul-16 04:33N 54°16' W 000°05'4 4.4
2014-Jul-16 03:33N 54°13' W 000°01'6 5.7
2014-Jul-16 02:33N 54°08' E 000°05'7 6.7
2014-Jul-16 01:33N 54°02' E 000°10'7 7.3
2014-Jul-16 00:33N 53°55' E 000°14'7 7.4
2014-Jul-15 23:33N 53°49' E 000°19'8 7.6
2014-Jul-15 22:33N 53°41' E 000°22'9 9.2
2014-Jul-15 21:33N 53°33' E 000°15'5 4.9
2014-Jul-15 20:33N 53°32' E 000°07'0 0.1
2014-Jul-15 19:29N 53°32' E 000°07'0 0.0
2014-Jul-15 18:17N 53°32' E 000°07'0 0.0
2014-Jul-15 17:29N 53°32' E 000°07'0 0.0
2014-Jul-15 16:32N 53°32' E 000°07'0 0.1
2014-Jul-15 15:23N 53°32' E 000°07'0 0.3
2014-Jul-15 14:29N 53°32' E 000°07'0 0.1
2014-Jul-15 13:32N 53°32' E 000°07'0 0.0
2014-Jul-15 12:32N 53°32' E 000°07'0 0.0
2014-Jul-15 11:32N 53°32' E 000°07'0 0.0
2014-Jul-15 10:32N 53°32' E 000°07'0 0.0
2014-Jul-15 09:32N 53°32' E 000°07'0 0.3
2014-Jul-15 08:29N 53°32' E 000°07'0 0.1
2014-Jul-15 07:29N 53°32' E 000°07'0 0.0
2014-Jul-15 06:29N 53°32' E 000°07'0 0.0
2014-Jul-15 05:32N 53°32' E 000°07'0 0.0
2014-Jul-15 04:32N 53°32' E 000°07'0 0.0
2014-Jul-15 03:32N 53°32' E 000°07'0 0.1
2014-Jul-15 02:32N 53°32' E 000°07'0 0.3
2014-Jul-15 01:32N 53°32' E 000°07'0 0.0
2014-Jul-15 00:29N 53°32' E 000°07'0 0.0
2014-Jul-14 23:32N 53°32' E 000°07'0 0.0
2014-Jul-14 22:32N 53°32' E 000°07'0 0.0
2014-Jul-14 21:29N 53°32' E 000°07'0 0.1
2014-Jul-14 20:26N 53°32' E 000°07'0 0.1
2014-Jul-14 19:33N 53°32' E 000°07'5 4.7
2014-Jul-14 18:34N 53°33' E 000°15'7 7.3
2014-Jul-14 17:33N 53°39' E 000°23'2 2.2
2014-Jul-14 16:33N 53°39' E 000°27'0 0.0
2014-Jul-14 15:33N 53°39' E 000°27'6 6.0
2014-Jul-14 14:34N 53°44' E 000°24'0 0.1
2014-Jul-14 12:33N 53°45' E 000°23'0 0.0
2014-Jul-14 11:24N 53°45' E 000°23'0 0.0
2014-Jul-14 10:24N 53°45' E 000°24'0 0.0
2014-Jul-14 09:24N 53°45' E 000°24'0 0.2
2014-Jul-14 08:27N 53°45' E 000°24'0 0.2
2014-Jul-14 07:09N 53°44' E 000°24'0 0.0
2014-Jul-14 06:30N 53°44' E 000°24'0 0.0
2014-Jul-14 05:30N 53°44' E 000°24'0 0.0
2014-Jul-14 04:30N 53°44' E 000°24'0 0.0
2014-Jul-14 03:33N 53°44' E 000°24'0 0.0
2014-Jul-14 02:15N 53°44' E 000°24'0 0.3
2014-Jul-14 01:30N 53°45' E 000°24'0 0.1
2014-Jul-14 00:18N 53°45' E 000°23'0 0.0
2014-Jul-13 23:18N 53°45' E 000°23'0 0.0
2014-Jul-13 22:21N 53°45' E 000°24'0 0.0
2014-Jul-13 21:33N 53°45' E 000°24'0 0.1
2014-Jul-13 20:24N 53°45' E 000°24'0 0.2
2014-Jul-13 19:30N 53°44' E 000°24'0 0.0
2014-Jul-13 18:33N 53°44' E 000°24'0 0.0
2014-Jul-13 17:24N 53°44' E 000°24'0 0.0
2014-Jul-13 16:27N 53°44' E 000°24'0 0.0
2014-Jul-13 15:27N 53°44' E 000°24'  

Dump ship's entire track history